Time;durP1;ratioP1;P1;durP2;ratioP2;P2;SDS_P1;SDS_P2;PMS_P1;PMS_P2;Temp;Humidity;BMP_temperature;BMP_pressure;BME280_temperature;BME280_humidity;BME280_pressure;Samples;Min_cycle;Max_cycle;Signal;HPM_P1;HPM_P2
2023/10/16 00:00:29;;;;;;;7.85;3.05;;;5.70;99.90;;;;;;5252290;23;20422;-83
2023/10/16 00:02:46;;;;;;;9.05;4.38;;;6.10;99.90;;;;;;5015712;28;20030;-85
2023/10/16 00:05:14;;;;;;;8.20;3.60;;;5.60;99.90;;;;;;5015615;28;20025;-84
2023/10/16 00:07:40;;;;;;;5.85;3.03;;;6.00;99.90;;;;;;5011986;28;20033;-85
2023/10/16 00:10:11;;;;;;;7.15;3.13;;;6.80;99.90;;;;;;5011681;28;20023;-83
2023/10/16 00:12:37;;;;;;;7.72;3.38;;;5.60;99.90;;;;;;4995111;28;20059;-84
2023/10/16 00:20:25;;;;;;;6.40;2.90;;;5.60;99.90;;;;;;4968647;28;20047;-87
2023/10/16 00:22:51;;;;;;;8.43;3.00;;;6.80;99.90;;;;;;4971066;28;20033;-84
2023/10/16 00:25:18;;;;;;;7.70;3.53;;;5.50;99.90;;;;;;4978627;28;20465;-86
2023/10/16 00:27:44;;;;;;;7.75;3.00;;;5.50;99.90;;;;;;4977258;28;20054;-82
2023/10/16 00:30:10;;;;;;;8.23;3.00;;;5.60;99.90;;;;;;4988306;28;20063;-82
2023/10/16 00:32:37;;;;;;;6.13;2.75;;;5.60;99.90;;;;;;4997372;28;20038;-84
2023/10/16 00:35:03;;;;;;;7.88;3.05;;;5.50;99.90;;;;;;4984370;28;20035;-82
2023/10/16 00:37:31;;;;;;;5.15;3.15;;;5.50;99.90;;;;;;4991285;28;20038;-86
2023/10/16 00:39:57;;;;;;;5.43;2.78;;;5.50;99.90;;;;;;4988396;28;20022;-86
2023/10/16 00:42:23;;;;;;;5.15;2.75;;;5.50;99.90;;;;;;4986353;28;20031;-82
2023/10/16 00:44:56;;;;;;;5.72;3.25;;;5.50;99.90;;;;;;4972832;28;20084;-83
2023/10/16 00:47:21;;;;;;;8.77;3.65;;;5.60;99.90;;;;;;4973359;28;20034;-87
2023/10/16 00:49:49;;;;;;;7.05;3.58;;;5.40;99.90;;;;;;4966611;28;20031;-87
2023/10/16 00:52:16;;;;;;;6.82;3.70;;;5.40;99.90;;;;;;4974300;28;20027;-84
2023/10/16 00:54:42;;;;;;;9.38;4.30;;;5.40;99.90;;;;;;4981235;28;20038;-85
2023/10/16 00:57:10;;;;;;;11.95;4.53;;;5.40;99.90;;;;;;4973155;28;20093;-85
2023/10/16 00:59:35;;;;;;;8.30;4.32;;;6.00;99.90;;;;;;4971117;28;20069;-85
2023/10/16 01:02:30;;;;;;;10.02;4.60;;;6.20;99.90;;;;;;4974189;28;20520;-87
2023/10/16 01:04:52;;;;;;;8.45;4.70;;;5.70;99.90;;;;;;4977451;28;20113;-83
2023/10/16 01:07:19;;;;;;;11.95;5.03;;;5.30;99.90;;;;;;4987326;28;20527;-85
2023/10/16 01:09:46;;;;;;;10.20;4.47;;;5.40;99.90;;;;;;4978659;28;20046;-87
2023/10/16 01:12:12;;;;;;;12.52;5.65;;;5.20;99.90;;;;;;4972180;28;20026;-83
2023/10/16 01:14:38;;;;;;;11.00;5.53;;;5.20;99.90;;;;;;4971241;28;20106;-87
2023/10/16 01:17:10;;;;;;;10.80;4.72;;;5.20;99.90;;;;;;4973595;28;20053;-84
2023/10/16 01:19:36;;;;;;;9.88;4.95;;;5.20;99.90;;;;;;4970669;28;20038;-83
2023/10/16 01:22:03;;;;;;;7.90;4.20;;;5.30;99.90;;;;;;4968589;28;20034;-84
2023/10/16 01:24:29;;;;;;;17.88;6.53;;;5.30;99.90;;;;;;4969755;28;20086;-84
2023/10/16 01:27:01;;;;;;;9.13;4.35;;;5.30;99.90;;;;;;4974311;28;20130;-84
2023/10/16 01:29:27;;;;;;;7.40;3.95;;;5.30;99.90;;;;;;4982354;28;20050;-84
2023/10/16 01:31:53;;;;;;;8.70;4.18;;;5.20;99.90;;;;;;4968595;28;20032;-83
2023/10/16 01:34:22;;;;;;;7.72;3.75;;;5.20;99.90;;;;;;4974627;28;20617;-83
2023/10/16 01:36:47;;;;;;;6.53;3.20;;;5.20;99.90;;;;;;4973886;28;20034;-85
2023/10/16 01:42:01;;;;;;;6.47;2.80;;;6.60;99.90;;;;;;4975205;28;20057;-82
2023/10/16 01:44:28;;;;;;;7.78;3.30;;;5.20;99.90;;;;;;4973404;28;20127;-83
2023/10/16 01:46:54;;;;;;;8.43;3.78;;;5.70;99.90;;;;;;4967604;28;20515;-81
2023/10/16 01:49:24;;;;;;;5.65;2.97;;;5.80;99.90;;;;;;4982752;28;20023;-81
2023/10/16 01:51:53;;;;;;;4.93;3.10;;;6.30;99.90;;;;;;4972519;28;20031;-81
2023/10/16 01:54:22;;;;;;;7.72;3.22;;;5.10;99.90;;;;;;4972148;28;20500;-83
2023/10/16 01:56:49;;;;;;;5.70;3.00;;;5.10;99.90;;;;;;4971449;28;20043;-85
2023/10/16 01:59:15;;;;;;;6.93;3.10;;;5.30;99.90;;;;;;4969166;28;20038;-80
2023/10/16 02:01:41;;;;;;;5.43;2.80;;;5.00;99.90;;;;;;4972442;28;20031;-80
2023/10/16 02:04:06;;;;;;;8.20;3.05;;;5.00;99.90;;;;;;4987065;28;20031;-82
2023/10/16 02:06:32;;;;;;;7.80;3.13;;;6.50;99.90;;;;;;4972114;28;20070;-81
2023/10/16 02:08:59;;;;;;;5.03;2.28;;;5.20;99.90;;;;;;4962064;28;20027;-85
2023/10/16 02:11:25;;;;;;;7.40;2.65;;;6.00;99.90;;;;;;4968233;28;20065;-80
2023/10/16 02:13:51;;;;;;;4.22;2.60;;;5.10;99.90;;;;;;4981166;28;20027;-80
2023/10/16 02:16:18;;;;;;;5.93;2.63;;;6.30;99.90;;;;;;4972512;28;20050;-85
2023/10/16 02:18:47;;;;;;;6.13;2.78;;;5.70;99.90;;;;;;4964604;28;20042;-83
2023/10/16 02:21:14;;;;;;;6.10;3.05;;;6.40;99.90;;;;;;4972540;28;20034;-81
2023/10/16 02:23:44;;;;;;;6.75;2.65;;;5.10;99.90;;;;;;4972368;28;20030;-86
2023/10/16 02:26:11;;;;;;;6.28;2.88;;;5.10;99.90;;;;;;4973086;28;20031;-83
2023/10/16 02:28:40;;;;;;;5.80;2.70;;;5.10;99.90;;;;;;4976654;28;22306;-84
2023/10/16 02:31:15;;;;;;;4.75;2.53;;;5.10;99.90;;;;;;4990334;28;20023;-83
2023/10/16 02:33:46;;;;;;;5.32;2.53;;;5.10;99.90;;;;;;4980169;28;20022;-84
2023/10/16 02:36:15;;;;;;;4.63;2.75;;;5.10;99.90;;;;;;4982514;28;20037;-84
2023/10/16 02:38:44;;;;;;;5.22;2.25;;;5.20;99.90;;;;;;4997569;28;20499;-84
2023/10/16 02:41:10;;;;;;;5.93;2.83;;;5.00;99.90;;;;;;4975632;28;20027;-87
2023/10/16 02:43:41;;;;;;;7.32;3.47;;;4.90;99.90;;;;;;4971405;28;20166;-85
2023/10/16 02:46:10;;;;;;;11.27;4.90;;;4.90;99.90;;;;;;4975728;28;20081;-87
2023/10/16 02:48:35;;;;;;;11.60;5.22;;;4.80;99.90;;;;;;4969285;28;20034;-79
2023/10/16 02:51:02;;;;;;;9.73;4.95;;;4.70;99.90;;;;;;4976722;28;20041;-85
2023/10/16 02:53:29;;;;;;;9.30;4.60;;;4.60;99.90;;;;;;4976174;28;20038;-84
2023/10/16 02:55:57;;;;;;;9.05;4.50;;;4.60;99.90;;;;;;4973288;28;20058;-79
2023/10/16 02:58:24;;;;;;;9.88;4.80;;;4.60;99.90;;;;;;4978795;28;20039;-81
2023/10/16 03:00:53;;;;;;;12.00;5.22;;;4.60;99.90;;;;;;4971644;28;20816;-83
2023/10/16 03:03:20;;;;;;;9.23;4.90;;;4.50;99.90;;;;;;4975252;28;20062;-83
2023/10/16 03:05:45;;;;;;;10.88;4.13;;;5.50;99.90;;;;;;4967411;28;20031;-84
2023/10/16 03:08:12;;;;;;;6.65;3.65;;;5.40;99.90;;;;;;4971710;28;20035;-80
2023/10/16 03:10:40;;;;;;;7.28;2.85;;;4.70;99.90;;;;;;4974176;28;20094;-83
2023/10/16 03:13:06;;;;;;;6.65;3.30;;;4.70;99.90;;;;;;4967332;28;20031;-81
2023/10/16 03:16:15;;;;;;;9.13;3.60;;;5.40;99.90;;;;;;4979221;28;20034;-81
2023/10/16 03:18:28;;;;;;;6.10;2.80;;;4.80;99.90;;;;;;4967236;28;20085;-82
2023/10/16 03:23:43;;;;;;;6.88;2.72;;;4.90;99.90;;;;;;4974748;28;20026;-82
2023/10/16 03:26:32;;;;;;;6.68;3.00;;;5.00;99.90;;;;;;4977411;28;20106;-84
2023/10/16 03:29:00;;;;;;;5.07;2.97;;;5.00;99.90;;;;;;4975222;28;20489;-86
2023/10/16 03:31:28;;;;;;;5.72;3.17;;;5.00;99.90;;;;;;4966968;28;20019;-81
2023/10/16 03:33:54;;;;;;;6.35;3.42;;;5.00;99.90;;;;;;4982210;28;20428;-82
2023/10/16 03:36:21;;;;;;;6.32;2.55;;;5.00;99.90;;;;;;4966474;28;20052;-80
2023/10/16 03:38:49;;;;;;;5.60;3.15;;;4.90;99.90;;;;;;4968349;28;20041;-81
2023/10/16 03:43:56;;;;;;;4.95;2.95;;;4.80;99.90;;;;;;4966292;28;20026;-83
2023/10/16 03:46:26;;;;;;;6.50;3.28;;;4.80;99.90;;;;;;4967932;28;20037;-82
2023/10/16 03:48:52;;;;;;;8.48;4.78;;;4.70;99.90;;;;;;4971857;28;20027;-82
2023/10/16 03:51:18;;;;;;;7.65;3.15;;;4.70;99.90;;;;;;4969715;28;20023;-86
2023/10/16 03:53:44;;;;;;;9.32;3.70;;;4.70;99.90;;;;;;4985362;28;20130;-82
2023/10/16 03:56:13;;;;;;;5.70;3.88;;;4.80;99.90;;;;;;4984664;28;20046;-81
2023/10/16 03:58:43;;;;;;;7.38;3.80;;;4.70;99.90;;;;;;4968514;28;20034;-83
2023/10/16 04:01:23;;;;;;;10.57;4.43;;;4.70;99.90;;;;;;4972127;28;20031;-84
2023/10/16 04:03:56;;;;;;;7.05;4.50;;;4.70;99.90;;;;;;4990414;28;20042;-86
2023/10/16 04:06:23;;;;;;;8.88;4.70;;;4.60;99.90;;;;;;4988575;28;20054;-83
2023/10/16 04:08:52;;;;;;;8.77;4.30;;;4.50;99.90;;;;;;4973512;28;20031;-85
2023/10/16 04:11:20;;;;;;;7.45;4.30;;;4.50;99.90;;;;;;4974595;28;20030;-84
2023/10/16 04:13:48;;;;;;;10.40;4.70;;;4.50;99.90;;;;;;4981088;28;20026;-82
2023/10/16 04:17:03;;;;;;;6.95;4.82;;;4.40;99.90;;;;;;4975086;28;20031;-82
2023/10/16 04:21:50;;;;;;;8.23;4.50;;;4.30;99.90;;;;;;4983610;28;20099;-85
2023/10/16 04:26:57;;;;;;;7.60;4.20;;;4.30;99.90;;;;;;4984952;28;20251;-86
2023/10/16 04:29:34;;;;;;;7.25;4.53;;;4.30;99.90;;;;;;4986834;28;20030;-82
2023/10/16 04:32:19;;;;;;;9.85;4.57;;;4.30;99.90;;;;;;4995842;28;20066;-84
2023/10/16 04:34:52;;;;;;;7.97;4.07;;;4.30;99.90;;;;;;4986287;28;20176;-83
2023/10/16 05:03:35;;;;;;;6.38;3.75;;;4.70;99.90;;;;;;4993880;28;20568;-86
2023/10/16 05:06:06;;;;;;;6.78;3.40;;;4.70;99.90;;;;;;4991083;28;20031;-81
2023/10/16 05:08:38;;;;;;;5.65;3.17;;;4.70;99.90;;;;;;4989759;28;20042;-85
2023/10/16 05:11:27;;;;;;;5.72;3.17;;;4.70;99.90;;;;;;4982321;28;20027;-85
2023/10/16 05:14:19;;;;;;;6.05;2.97;;;5.10;99.90;;;;;;4980497;28;20138;-83
2023/10/16 05:16:53;;;;;;;5.53;3.22;;;;;;;;;;4978528;28;20038;-85
2023/10/16 06:16:28;;;;;;;10.07;2.78;;;5.40;99.90;;;;;;4972358;28;20049;-85
2023/10/16 06:18:54;;;;;;;6.90;3.00;;;;;;;;;;4990229;28;20038;-87
2023/10/16 06:21:19;;;;;;;5.70;2.72;;;4.70;99.90;;;;;;4973157;28;20097;-85
2023/10/16 06:23:49;;;;;;;5.57;3.13;;;4.60;99.90;;;;;;4974806;28;20051;-85
2023/10/16 06:26:18;;;;;;;8.90;4.63;;;4.30;99.90;;;;;;4977337;28;20041;-84
2023/10/16 06:28:47;;;;;;;6.88;2.92;;;;;;;;;;4979943;28;20026;-82
2023/10/16 06:31:26;;;;;;;7.50;2.80;;;4.60;99.90;;;;;;4966717;28;20047;-84
2023/10/16 06:33:56;;;;;;;6.70;3.40;;;4.60;99.90;;;;;;4972447;28;20052;-82
2023/10/16 06:36:24;;;;;;;6.50;3.97;;;;;;;;;;4972554;28;20026;-84
2023/10/16 06:38:51;;;;;;;6.47;3.03;;;4.80;99.90;;;;;;4983937;28;20031;-86
2023/10/16 06:41:19;;;;;;;5.38;2.78;;;4.70;99.90;;;;;;4983774;28;20509;-84
2023/10/16 06:43:47;;;;;;;6.75;2.80;;;7.90;99.90;;;;;;4991864;28;20053;-84
2023/10/16 06:46:21;;;;;;;6.32;2.80;;;5.00;99.90;;;;;;4980026;28;20026;-84
2023/10/16 06:48:48;;;;;;;4.03;2.50;;;5.00;99.90;;;;;;4968603;28;20039;-85
2023/10/16 06:51:15;;;;;;;5.05;2.67;;;;;;;;;;4963301;28;20567;-82
2023/10/16 06:53:43;;;;;;;7.75;2.50;;;5.20;99.90;;;;;;4979046;28;20026;-84
2023/10/16 06:56:08;;;;;;;6.53;3.50;;;5.10;99.90;;;;;;4982503;28;20031;-83
2023/10/16 06:58:34;;;;;;;4.03;2.42;;;5.30;99.90;;;;;;4986906;28;20037;-84
2023/10/16 07:01:01;;;;;;;5.35;2.55;;;5.30;99.90;;;;;;4972971;28;20038;-86
2023/10/16 07:03:28;;;;;;;3.38;2.30;;;5.40;99.90;;;;;;4971700;28;20054;-86
2023/10/16 07:05:54;;;;;;;5.05;2.33;;;;;;;;;;4978236;28;20033;-84
2023/10/16 07:08:22;;;;;;;4.07;2.60;;;5.60;99.90;;;;;;4976590;28;20031;-84
2023/10/16 07:10:52;;;;;;;6.18;2.65;;;5.60;99.90;;;;;;4990159;28;20026;-87
2023/10/16 07:13:29;;;;;;;6.03;2.50;;;8.80;99.90;;;;;;4972186;28;20033;-85
2023/10/16 07:16:01;;;;;;;9.40;2.85;;;5.50;99.90;;;;;;4982088;28;20054;-85
2023/10/16 07:18:28;;;;;;;7.45;2.45;;;5.70;99.90;;;;;;4984200;28;20471;-82
2023/10/16 07:23:29;;;;;;;5.80;2.30;;;7.70;99.90;;;;;;4977995;28;20031;-81
2023/10/16 07:25:58;;;;;;;5.93;2.42;;;;;;;;;;5001207;28;20035;-83
2023/10/16 07:28:28;;;;;;;4.05;2.22;;;6.00;99.90;;;;;;4990195;28;20030;-84
2023/10/16 07:30:58;;;;;;;5.38;2.50;;;6.10;99.90;;;;;;4980769;28;20051;-86
2023/10/16 07:33:24;;;;;;;6.75;3.00;;;6.00;99.90;;;;;;4985446;28;20113;-85
2023/10/16 07:35:52;;;;;;;7.05;2.80;;;6.10;99.90;;;;;;4979664;28;20051;-87
2023/10/16 07:38:20;;;;;;;6.82;2.67;;;6.10;99.90;;;;;;4979300;28;20058;-83
2023/10/16 07:40:51;;;;;;;4.55;2.65;;;6.10;99.90;;;;;;4979485;28;20038;-84
2023/10/16 07:43:32;;;;;;;7.10;2.78;;;6.20;99.90;;;;;;4981836;28;20058;-82
2023/10/16 07:48:37;;;;;;;10.10;2.90;;;6.30;99.90;;;;;;4979236;28;20023;-85
2023/10/16 07:51:06;;;;;;;8.05;2.83;;;6.30;99.90;;;;;;4985026;28;20588;-84
2023/10/16 07:53:34;;;;;;;7.05;2.70;;;6.50;99.90;;;;;;4987579;28;20062;-83
2023/10/16 07:56:02;;;;;;;9.07;2.83;;;6.50;99.90;;;;;;4975138;28;20058;-84
2023/10/16 07:58:33;;;;;;;42.80;3.92;;;;;;;;;;4980899;28;20077;-85
2023/10/16 08:03:36;;;;;;;4.22;2.53;;;;;;;;;;4984312;28;20054;-86
2023/10/16 08:06:28;;;;;;;4.78;2.63;;;6.90;99.90;;;;;;4982983;28;20027;-84
2023/10/16 08:11:43;;;;;;;5.10;2.25;;;;;;;;;;4989498;28;20061;-82
2023/10/16 08:14:10;;;;;;;8.55;2.33;;;7.20;99.90;;;;;;4976886;28;20073;-84
2023/10/16 08:16:38;;;;;;;6.63;2.63;;;7.10;99.90;;;;;;4976908;28;20035;-88
2023/10/16 08:19:24;;;;;;;8.82;3.28;;;7.30;99.90;;;;;;4977599;28;20051;-84
2023/10/16 08:21:56;;;;;;;7.75;2.67;;;7.30;99.90;;;;;;4968296;28;20034;-85
2023/10/16 08:24:24;;;;;;;7.53;2.72;;;;;;;;;;4976160;28;20043;-89
2023/10/16 08:26:50;;;;;;;5.88;2.83;;;;;;;;;;4989069;28;20035;-85
2023/10/16 08:34:35;;;;;;;6.90;2.33;;;7.50;99.90;;;;;;4952141;28;20031;-87
2023/10/16 08:37:03;;;;;;;7.85;2.85;;;7.60;99.90;;;;;;4974254;28;20061;-89
2023/10/16 08:39:36;;;;;;;5.88;2.28;;;7.60;99.90;;;;;;4980643;28;20035;-81
2023/10/16 08:42:18;;;;;;;7.03;2.50;;;7.80;99.90;;;;;;4979416;28;20125;-84
2023/10/16 08:44:51;;;;;;;8.77;2.65;;;7.80;99.90;;;;;;4983746;28;20034;-88
2023/10/16 08:47:27;;;;;;;6.07;2.42;;;7.90;99.90;;;;;;4982493;28;20030;-87
2023/10/16 08:49:56;;;;;;;4.63;2.47;;;8.00;99.90;;;;;;4988376;28;20374;-90
2023/10/16 08:52:25;;;;;;;6.53;2.80;;;8.70;99.90;;;;;;4983375;28;20023;-85
2023/10/16 08:57:19;;;;;;;6.60;2.35;;;8.20;99.90;;;;;;4977631;28;20121;-88
2023/10/16 08:59:47;;;;;;;7.45;2.40;;;9.80;99.90;;;;;;4995190;28;20038;-87
2023/10/16 09:02:17;;;;;;;7.05;2.08;;;11.50;99.90;;;;;;4993912;28;20018;-88
2023/10/16 09:04:44;;;;;;;7.30;2.58;;;8.50;99.90;;;;;;4985573;28;20019;-84
2023/10/16 09:07:11;;;;;;;5.03;2.40;;;;;;;;;;5007004;28;20125;-87
2023/10/16 09:09:41;;;;;;;8.23;2.60;;;8.70;99.90;;;;;;4992234;28;20019;-87
2023/10/16 09:12:10;;;;;;;7.03;2.77;;;;;;;;;;4993815;28;20026;-85
2023/10/16 09:14:39;;;;;;;5.43;2.30;;;8.70;99.90;;;;;;4992575;28;20050;-85
2023/10/16 09:17:08;;;;;;;7.72;2.40;;;;;;;;;;4991115;28;20030;-89
2023/10/16 09:19:34;;;;;;;6.65;2.40;;;;;;;;;;4996398;28;20544;-84
2023/10/16 09:22:09;;;;;;;5.45;2.30;;;9.00;99.90;;;;;;4990928;28;20151;-86
2023/10/16 09:24:35;;;;;;;6.25;2.45;;;9.20;99.90;;;;;;4995364;28;20035;-85
2023/10/16 09:27:11;;;;;;;7.25;2.92;;;9.30;99.90;;;;;;4976923;28;20469;-83
2023/10/16 09:29:37;;;;;;;6.47;2.15;;;;;;;;;;4994117;28;20065;-88
2023/10/16 09:32:06;;;;;;;3.42;1.98;;;9.30;99.90;;;;;;4982421;28;20027;-84
2023/10/16 09:34:34;;;;;;;5.03;2.10;;;9.20;99.90;;;;;;4975557;28;20041;-84
2023/10/16 09:37:15;;;;;;;5.35;1.92;;;;;;;;;;4979416;28;20035;-83
2023/10/16 09:39:46;;;;;;;7.30;2.13;;;9.20;99.90;;;;;;4982693;28;20035;-87
2023/10/16 09:42:12;;;;;;;;;;;9.30;99.90;;;;;;4986085;28;20030;-87
2023/10/16 09:44:59;;;;;;;3.92;2.05;;;;;;;;;;4986919;28;19910;-87
2023/10/16 09:47:26;;;;;;;5.80;2.35;;;9.60;99.90;;;;;;4984507;28;20098;-86
2023/10/16 09:49:59;;;;;;;5.13;1.95;;;9.80;99.90;;;;;;4986684;28;20035;-85
2023/10/16 09:52:32;;;;;;;5.57;2.47;;;9.90;99.90;;;;;;4977985;28;20054;-84
2023/10/16 09:55:05;;;;;;;6.30;2.40;;;;;;;;;;4983289;28;20118;-85
2023/10/16 09:57:33;;;;;;;6.38;2.40;;;10.20;99.90;;;;;;4989099;28;20038;-85
2023/10/16 10:02:46;;;;;;;9.63;2.50;;;10.20;99.90;;;;;;4971959;28;20046;-85
2023/10/16 10:05:12;;;;;;;9.45;3.30;;;11.40;99.90;;;;;;4980332;28;20031;-85
2023/10/16 10:07:58;;;;;;;6.40;1.90;;;13.00;99.90;;;;;;4983634;28;20035;-87
2023/10/16 10:13:10;;;;;;;7.40;2.50;;;10.40;99.90;;;;;;4986188;28;20058;-87
2023/10/16 10:15:44;;;;;;;6.53;2.10;;;12.30;99.90;;;;;;4987976;28;20034;-88
2023/10/16 10:18:31;;;;;;;5.95;2.67;;;7.40;99.90;;;;;;4989687;28;20063;-85
2023/10/16 10:21:11;;;;;;;8.07;2.20;;;;;;;;;;5007676;28;20090;-89
2023/10/16 10:23:37;;;;;;;3.63;1.70;;;;;;;;;;4987612;28;20221;-83
2023/10/16 10:26:07;;;;;;;4.32;1.98;;;10.60;99.90;;;;;;4986682;28;20563;-84
2023/10/16 10:28:36;;;;;;;2.50;1.55;;;10.90;99.90;;;;;;4988254;28;20039;-82
2023/10/16 10:31:04;;;;;;;5.03;1.98;;;13.80;99.90;;;;;;4995369;28;20006;-87
2023/10/16 10:33:52;;;;;;;4.55;2.10;;;13.10;99.90;;;;;;4985885;28;20022;-87
2023/10/16 10:36:33;;;;;;;3.95;1.95;;;12.50;99.90;;;;;;4993929;28;20086;-84
2023/10/16 10:39:21;;;;;;;4.35;1.83;;;11.40;99.90;;;;;;5008628;28;20038;-87
2023/10/16 10:42:03;;;;;;;3.15;1.67;;;11.40;99.90;;;;;;4994811;28;20031;-85
2023/10/16 10:44:30;;;;;;;5.75;2.00;;;11.40;99.90;;;;;;4980711;28;20023;-86
2023/10/16 10:46:57;;;;;;;5.97;2.00;;;11.40;99.90;;;;;;4980887;28;20042;-88
2023/10/16 10:49:33;;;;;;;4.85;2.25;;;11.40;99.90;;;;;;4982035;28;20070;-85
2023/10/16 10:52:04;;;;;;;4.18;1.80;;;11.40;99.90;;;;;;4981969;28;20027;-87
2023/10/16 10:54:30;;;;;;;3.53;1.60;;;11.50;99.90;;;;;;4983233;28;20484;-87
2023/10/16 10:56:59;;;;;;;4.88;2.03;;;;;;;;;;4966418;28;20050;-86
2023/10/16 10:59:41;;;;;;;5.28;1.90;;;11.50;99.90;;;;;;4982488;28;20039;-86
2023/10/16 11:04:44;;;;;;;5.22;1.73;;;;;;;;;;4974100;28;20042;-88
2023/10/16 11:07:26;;;;;;;6.20;1.73;;;;;;;;;;4983178;28;20572;-84
2023/10/16 11:09:52;;;;;;;3.50;1.50;;;11.60;99.90;;;;;;4981107;28;20030;-86
2023/10/16 11:12:24;;;;;;;4.13;1.38;;;11.60;99.90;;;;;;4977421;28;20560;-83
2023/10/16 11:14:50;;;;;;;3.00;1.30;;;11.60;99.90;;;;;;4975634;28;20023;-82
2023/10/16 11:17:33;;;;;;;3.67;1.17;;;11.60;99.90;;;;;;4975443;28;20031;-87
2023/10/16 11:20:27;;;;;;;2.42;1.08;;;11.80;99.90;;;;;;4972510;28;20035;-84
2023/10/16 11:22:45;;;;;;;2.75;1.00;;;;;;;;;;4984092;28;20030;-83
2023/10/16 11:25:13;;;;;;;4.10;1.33;;;12.00;99.90;;;;;;4992418;28;20495;-87
2023/10/16 11:27:43;;;;;;;1.75;1.15;;;12.00;99.90;;;;;;4978928;28;20117;-85
2023/10/16 11:30:13;;;;;;;3.88;1.27;;;12.10;99.90;;;;;;4974019;28;20023;-85
2023/10/16 11:32:41;;;;;;;2.30;1.20;;;12.20;99.90;;;;;;4979070;28;20689;-87
2023/10/16 11:35:17;;;;;;;5.88;1.50;;;12.10;99.90;;;;;;4990187;28;20041;-86
2023/10/16 11:37:55;;;;;;;3.35;1.30;;;12.30;99.90;;;;;;4985457;28;20033;-82
2023/10/16 11:40:31;;;;;;;3.78;1.30;;;12.30;99.90;;;;;;4970121;28;20143;-85
2023/10/16 11:42:58;;;;;;;3.85;1.30;;;14.30;99.90;;;;;;4985474;28;20122;-88
2023/10/16 11:45:24;;;;;;;1.60;0.93;;;15.10;99.90;;;;;;4975182;28;20445;-83
2023/10/16 11:50:41;;;;;;;4.28;0.93;;;14.10;99.90;;;;;;4976201;28;20091;-87
2023/10/16 11:53:10;;;;;;;6.10;1.00;;;12.50;99.90;;;;;;4981005;28;20503;-84
2023/10/16 11:55:36;;;;;;;3.00;1.10;;;13.70;99.90;;;;;;4970828;28;20101;-84
2023/10/16 11:58:06;;;;;;;4.53;1.13;;;16.00;99.90;;;;;;4976215;28;20039;-85
2023/10/16 12:00:35;;;;;;;4.20;1.13;;;13.80;99.90;;;;;;4987118;28;20031;-84
2023/10/16 12:03:01;;;;;;;3.42;1.13;;;14.50;99.90;;;;;;4976186;28;20030;-86
2023/10/16 12:05:28;;;;;;;4.68;1.00;;;13.80;99.90;;;;;;4995630;28;20035;-87
2023/10/16 12:07:56;;;;;;;3.55;1.00;;;14.20;99.90;;;;;;4980088;28;20325;-88
2023/10/16 12:10:22;;;;;;;2.75;1.25;;;14.00;99.90;;;;;;4998298;28;20058;-86
2023/10/16 12:12:49;;;;;;;4.88;1.00;;;;;;;;;;4978191;28;20030;-87
2023/10/16 12:15:15;;;;;;;2.60;1.00;;;13.00;99.50;;;;;;4988981;28;20114;-88
2023/10/16 12:17:43;;;;;;;1.80;1.13;;;;;;;;;;4972324;28;20066;-88
2023/10/16 12:20:10;;;;;;;3.50;1.00;;;;;;;;;;4985936;28;20039;-87
2023/10/16 12:22:39;;;;;;;3.00;1.00;;;13.00;99.10;;;;;;4983718;28;20088;-85
2023/10/16 12:25:09;;;;;;;1.50;0.88;;;15.10;99.10;;;;;;4972460;28;20443;-86
2023/10/16 12:27:38;;;;;;;3.45;1.17;;;13.00;98.80;;;;;;4979052;28;20027;-87
2023/10/16 12:30:05;;;;;;;2.28;1.10;;;13.20;99.50;;;;;;4987381;28;20030;-85
2023/10/16 12:32:31;;;;;;;2.25;1.00;;;13.20;99.50;;;;;;4979575;28;20025;-84
2023/10/16 12:35:00;;;;;;;2.45;1.00;;;13.20;98.60;;;;;;4974386;28;20023;-87
2023/10/16 12:37:27;;;;;;;2.75;0.80;;;13.00;98.30;;;;;;4976516;28;20027;-87
2023/10/16 12:39:54;;;;;;;2.08;0.90;;;13.30;98.50;;;;;;4983951;28;20031;-87
2023/10/16 12:42:20;;;;;;;2.15;0.70;;;13.60;98.00;;;;;;4975313;28;20031;-87
2023/10/16 12:44:46;;;;;;;2.85;1.10;;;14.90;97.60;;;;;;4986806;28;20049;-86
2023/10/16 12:47:14;;;;;;;2.20;1.00;;;15.20;97.80;;;;;;4977663;28;20081;-87
2023/10/16 12:50:28;;;;;;;1.73;0.98;;;14.90;97.90;;;;;;4979291;28;20019;-88
2023/10/16 12:52:29;;;;;;;3.25;0.93;;;16.10;98.60;;;;;;4983818;28;20031;-87
2023/10/16 12:54:56;;;;;;;2.15;0.98;;;13.60;97.90;;;;;;4978973;28;20027;-85
2023/10/16 12:57:27;;;;;;;1.23;0.90;;;;;;;;;;4963879;28;21644;-87
2023/10/16 12:59:56;;;;;;;2.78;0.93;;;;;;;;;;4982006;28;20022;-87
2023/10/16 13:02:25;;;;;;;2.22;0.70;;;;;;;;;;4972116;28;20085;-88
2023/10/16 13:04:52;;;;;;;2.30;0.73;;;;;;;;;;4982720;28;20054;-87
2023/10/16 13:07:20;;;;;;;5.78;0.85;;;;;;;;;;4990170;28;20023;-88
2023/10/16 13:09:47;;;;;;;2.35;1.10;;;;;;;;;;4991257;28;20114;-86
2023/10/16 13:12:15;;;;;;;2.83;1.00;;;;;;;;;;4993723;28;20031;-88
2023/10/16 13:14:44;;;;;;;1.95;0.90;;;;;;;;;;4988521;28;20023;-85
2023/10/16 13:17:15;;;;;;;2.65;1.00;;;;;;;;;;4971739;28;20153;-84
2023/10/16 13:19:41;;;;;;;2.97;0.95;;;;;;;;;;4977084;28;20054;-87
2023/10/16 13:22:17;;;;;;;2.88;0.98;;;;;;;;;;4976183;28;20070;-89
2023/10/16 13:24:43;;;;;;;3.08;0.95;;;;;;;;;;4989930;28;20045;-88
2023/10/16 13:27:09;;;;;;;3.65;0.93;;;;;;;;;;4990273;28;20062;-89
2023/10/16 13:29:38;;;;;;;3.08;1.00;;;;;;;;;;4991901;28;20033;-88
2023/10/16 13:32:04;;;;;;;1.80;1.17;;;13.70;96.20;;;;;;4977964;28;20035;-88
2023/10/16 13:34:33;;;;;;;3.25;0.93;;;;;;;;;;4985293;28;20026;-87
2023/10/16 13:37:08;;;;;;;3.28;1.00;;;;;;;;;;4978099;28;20038;-86
2023/10/16 13:39:38;;;;;;;2.92;0.93;;;;;;;;;;4994644;28;20038;-90
2023/10/16 13:42:08;;;;;;;4.00;1.00;;;;;;;;;;4975628;28;20023;-89
2023/10/16 13:44:35;;;;;;;1.30;0.70;;;;;;;;;;4997237;28;20062;-88
2023/10/16 13:47:05;;;;;;;1.77;0.88;;;;;;;;;;4985360;28;20031;-84
2023/10/16 13:49:31;;;;;;;2.03;0.82;;;13.70;94.50;;;;;;4995717;28;20027;-87
2023/10/16 13:52:00;;;;;;;2.17;0.80;;;;;;;;;;4988330;28;20037;-86
2023/10/16 13:54:26;;;;;;;2.08;0.80;;;;;;;;;;4987981;28;20031;-88
2023/10/16 13:56:52;;;;;;;2.92;0.82;;;;;;;;;;4995757;28;20640;-83
2023/10/16 13:59:18;;;;;;;1.60;0.80;;;;;;;;;;4989608;28;20061;-86
2023/10/16 14:01:45;;;;;;;2.15;0.80;;;;;;;;;;4998226;28;20035;-84
2023/10/16 14:04:15;;;;;;;2.47;1.00;;;13.80;94.40;;;;;;4983285;28;20073;-88
2023/10/16 14:06:54;;;;;;;1.30;0.90;;;13.90;94.00;;;;;;4967773;28;20038;-86
2023/10/16 14:09:32;;;;;;;1.40;0.70;;;;;;;;;;4978444;28;20050;-87
2023/10/16 14:12:01;;;;;;;1.42;0.80;;;;;;;;;;4990744;28;20033;-85
2023/10/16 14:14:28;;;;;;;2.85;0.70;;;13.80;93.40;;;;;;4975834;28;20038;-88
2023/10/16 14:19:52;;;;;;;1.30;0.68;;;13.70;93.00;;;;;;4969477;28;20047;-87
2023/10/16 14:22:23;;;;;;;1.48;0.80;;;;;;;;;;4981570;28;20023;-85
2023/10/16 14:24:49;;;;;;;2.17;1.10;;;;;;;;;;4977769;28;20126;-84
2023/10/16 14:27:24;;;;;;;3.53;1.00;;;;;;;;;;4996831;28;20065;-89
2023/10/16 14:30:33;;;;;;;1.63;0.90;;;13.60;92.10;;;;;;4981351;28;20027;-89
2023/10/16 14:32:59;;;;;;;1.08;0.80;;;;;;;;;;4981256;28;20019;-86
2023/10/16 14:35:27;;;;;;;2.47;0.80;;;;;;;;;;4975802;28;20031;-83
2023/10/16 14:37:53;;;;;;;8.15;2.30;;;;;;;;;;4977326;28;20026;-86
2023/10/16 14:40:22;;;;;;;2.13;0.82;;;;;;;;;;4979120;28;20059;-83
2023/10/16 14:42:51;;;;;;;0.52;0.52;;;;;;;;;;4986387;28;20023;-86
2023/10/16 14:45:17;;;;;;;1.63;0.73;;;;;;;;;;4983605;28;20125;-85
2023/10/16 14:47:43;;;;;;;2.42;0.80;;;13.50;92.20;;;;;;4975028;28;20030;-86
2023/10/16 14:50:14;;;;;;;2.22;0.63;;;;;;;;;;4978189;28;20054;-86
2023/10/16 14:52:39;;;;;;;1.10;0.70;;;13.40;91.40;;;;;;4977995;28;20058;-88
2023/10/16 14:55:07;;;;;;;3.92;0.73;;;;;;;;;;4984464;28;20035;-82
2023/10/16 14:57:36;;;;;;;3.13;1.10;;;;;;;;;;4994719;28;20125;-88
2023/10/16 15:00:02;;;;;;;2.15;0.88;;;;;;;;;;4978147;28;20035;-88
2023/10/16 15:02:28;;;;;;;2.47;0.68;;;13.20;91.80;;;;;;4982745;28;20022;-86
2023/10/16 15:04:54;;;;;;;3.25;0.90;;;;;;;;;;4973662;28;20038;-87
2023/10/16 15:07:21;;;;;;;1.30;0.70;;;;;;;;;;4972302;28;20053;-87
2023/10/16 15:10:59;;;;;;;;;;;;;;;;;;;;;
2023/10/16 15:14:12;;;;;;;;;;;;;;;;;;;;;
2023/10/16 15:16:39;;;;;;;1.67;0.80;;;13.00;92.00;;;;;;4919919;28;20158;-86
2023/10/16 15:19:59;;;;;;;1.15;0.70;;;;;;;;;;4969213;28;20034;-83
2023/10/16 15:22:00;;;;;;;3.22;1.20;;;;;;;;;;4970646;28;20027;-85
2023/10/16 15:24:26;;;;;;;2.60;0.77;;;;;;;;;;4986160;28;20030;-87
2023/10/16 15:26:52;;;;;;;2.42;0.93;;;;;;;;;;4978295;28;20072;-82
2023/10/16 15:29:18;;;;;;;2.80;0.90;;;;;;;;;;4988294;28;20106;-86
2023/10/16 15:31:46;;;;;;;3.17;1.23;;;12.70;93.60;;;;;;4968827;28;20035;-84
2023/10/16 15:34:12;;;;;;;2.13;0.70;;;12.70;93.60;;;;;;4972356;28;20022;-87
2023/10/16 15:36:38;;;;;;;1.45;0.70;;;12.60;93.80;;;;;;4974018;28;20034;-87
2023/10/16 15:39:04;;;;;;;2.47;0.90;;;12.60;94.10;;;;;;4970607;28;20035;-86
2023/10/16 15:41:30;;;;;;;2.03;0.90;;;;;;;;;;4959230;28;20037;-86
2023/10/16 15:43:58;;;;;;;4.55;0.80;;;;;;;;;;4971769;28;20094;-85
2023/10/16 15:46:30;;;;;;;2.53;0.90;;;;;;;;;;4992185;28;20035;-87
2023/10/16 15:48:56;;;;;;;2.08;1.05;;;;;;;;;;4990723;28;20038;-87